createdAt,value
2023-04-19T00:00:19.949Z,9.40
2023-04-19T00:04:03.073Z,9.40
2023-04-19T00:07:45.047Z,9.30
2023-04-19T00:11:26.888Z,9.30
2023-04-19T00:15:08.951Z,9.30
2023-04-19T00:18:50.726Z,9.30
2023-04-19T00:22:32.450Z,9.30
2023-04-19T00:26:15.838Z,9.20
2023-04-19T00:29:57.819Z,9.10
2023-04-19T00:33:39.504Z,9.10
2023-04-19T00:37:21.470Z,9.20
2023-04-19T00:41:03.218Z,9.20
2023-04-19T00:44:44.987Z,9.30
2023-04-19T00:48:26.777Z,9.30
2023-04-19T00:52:08.858Z,9.40
2023-04-19T00:55:51.418Z,9.40
2023-04-19T00:59:34.820Z,9.40
2023-04-19T01:03:17.043Z,9.40
2023-04-19T01:06:59.015Z,9.40
2023-04-19T01:10:40.811Z,9.40
2023-04-19T01:14:22.544Z,9.30
2023-04-19T01:18:04.581Z,9.30
2023-04-19T01:21:46.461Z,9.30
2023-04-19T01:25:28.362Z,9.20
2023-04-19T01:29:10.250Z,9.30
2023-04-19T01:32:52.035Z,9.30
2023-04-19T01:36:34.416Z,9.30
2023-04-19T01:40:16.452Z,9.30
2023-04-19T01:43:58.148Z,9.30
2023-04-19T01:47:39.947Z,9.30
2023-04-19T01:51:21.974Z,9.30
2023-04-19T01:55:04.004Z,9.20
2023-04-19T01:58:45.704Z,9.30
2023-04-19T02:02:27.530Z,9.30
2023-04-19T02:06:13.586Z,9.30
2023-04-19T02:09:55.455Z,9.30
2023-04-19T02:13:37.381Z,9.30
2023-04-19T02:17:19.140Z,9.30
2023-04-19T02:21:00.888Z,9.30
2023-04-19T02:24:42.601Z,9.30
2023-04-19T02:28:24.513Z,9.30
2023-04-19T02:32:07.092Z,9.30
2023-04-19T02:35:48.880Z,9.30
2023-04-19T02:39:31.257Z,9.30
2023-04-19T02:43:13.002Z,9.40
2023-04-19T02:46:55.036Z,9.40
2023-04-19T02:50:38.543Z,9.40
2023-04-19T02:54:20.308Z,9.40
2023-04-19T02:58:02.048Z,9.40
2023-04-19T03:01:43.960Z,9.40
2023-04-19T03:05:25.718Z,9.40
2023-04-19T03:09:07.444Z,9.40
2023-04-19T03:12:49.183Z,9.40
2023-04-19T03:16:30.892Z,9.40
2023-04-19T03:20:12.721Z,9.40
2023-04-19T03:23:55.382Z,9.40
2023-04-19T03:27:37.189Z,9.40
2023-04-19T03:31:18.934Z,9.30
2023-04-19T03:35:00.871Z,9.30
2023-04-19T03:38:44.421Z,9.30
2023-04-19T03:42:28.744Z,9.40
2023-04-19T03:46:10.808Z,9.30
2023-04-19T03:49:52.624Z,9.40
2023-04-19T03:53:34.498Z,9.40
2023-04-19T03:57:17.697Z,9.40
2023-04-19T04:00:59.967Z,9.40
2023-04-19T04:04:41.848Z,9.40
2023-04-19T04:08:23.808Z,9.30
2023-04-19T04:12:05.740Z,9.30
2023-04-19T04:15:47.435Z,9.30
2023-04-19T04:19:29.156Z,9.20
2023-04-19T04:23:11.002Z,9.20
2023-04-19T04:26:52.705Z,9.10
2023-04-19T04:30:34.975Z,9.10
2023-04-19T04:34:16.841Z,9.00
2023-04-19T04:37:59.720Z,9.00
2023-04-19T04:41:42.381Z,8.90
2023-04-19T04:45:24.165Z,8.90
2023-04-19T04:49:06.511Z,8.90
2023-04-19T04:52:48.232Z,8.80
2023-04-19T04:56:30.897Z,8.80
2023-04-19T05:00:13.167Z,8.90
2023-04-19T05:03:54.872Z,8.80
2023-04-19T05:07:36.641Z,8.80
2023-04-19T05:11:18.930Z,8.80
2023-04-19T05:15:00.788Z,8.90
2023-04-19T05:18:42.556Z,9.00
2023-04-19T05:22:24.299Z,9.10
2023-04-19T05:26:06.092Z,9.10
2023-04-19T05:29:47.971Z,9.10
2023-04-19T05:33:29.806Z,9.10
2023-04-19T05:37:11.550Z,9.10
2023-04-19T05:40:53.294Z,9.10
2023-04-19T05:44:35.014Z,9.00
2023-04-19T05:48:16.896Z,9.00
2023-04-19T05:51:58.654Z,8.90
2023-04-19T05:55:40.370Z,8.90
2023-04-19T05:59:22.113Z,8.90
2023-04-19T06:03:04.030Z,9.00
2023-04-19T06:06:45.791Z,9.00
2023-04-19T06:10:36.743Z,9.10
2023-04-19T06:14:23.031Z,9.10
2023-04-19T06:18:05.817Z,9.20
2023-04-19T06:21:47.797Z,9.30
2023-04-19T06:25:29.557Z,9.30
2023-04-19T06:29:11.331Z,9.30
2023-04-19T06:32:53.367Z,9.30
2023-04-19T06:36:35.279Z,9.40
2023-04-19T06:40:17.134Z,9.40
2023-04-19T06:43:58.869Z,9.40
2023-04-19T06:47:40.700Z,9.40
2023-04-19T06:51:22.564Z,9.50
2023-04-19T06:55:05.271Z,9.60
2023-04-19T06:58:46.991Z,9.70
2023-04-19T07:02:28.860Z,9.80
2023-04-19T07:06:10.864Z,9.90
2023-04-19T07:09:52.680Z,9.90
2023-04-19T07:13:34.429Z,9.90
2023-04-19T07:17:18.175Z,10.00
2023-04-19T07:20:59.935Z,10.00
2023-04-19T07:24:42.061Z,10.10
2023-04-19T07:28:23.829Z,10.20
2023-04-19T07:32:05.968Z,10.20
2023-04-19T07:35:47.836Z,10.30
2023-04-19T07:39:31.013Z,10.40
2023-04-19T07:43:12.816Z,10.40
2023-04-19T07:46:54.689Z,10.50
2023-04-19T07:50:37.455Z,10.50
2023-04-19T07:54:22.194Z,10.50
2023-04-19T07:58:04.029Z,10.50
2023-04-19T08:01:45.852Z,10.50
2023-04-19T08:05:27.879Z,10.50
2023-04-19T08:09:09.640Z,10.60
2023-04-19T08:13:05.361Z,10.60
2023-04-19T08:20:33.158Z,10.80
2023-04-19T08:24:15.188Z,11.00
2023-04-19T08:27:58.093Z,11.10
2023-04-19T08:31:39.903Z,11.20
2023-04-19T08:35:21.834Z,11.30
2023-04-19T08:39:08.145Z,11.30
2023-04-19T08:42:52.124Z,11.40
2023-04-19T08:46:33.910Z,11.50
2023-04-19T08:50:33.535Z,11.60
2023-04-19T08:54:19.453Z,11.70
2023-04-19T08:58:04.174Z,11.80
2023-04-19T09:01:47.599Z,11.90
2023-04-19T09:05:29.817Z,11.90
2023-04-19T09:09:35.599Z,12.00
2023-04-19T09:13:20.695Z,12.10
2023-04-19T09:17:15.833Z,12.30
2023-04-19T09:20:57.659Z,12.50
2023-04-19T09:28:24.701Z,12.80
2023-04-19T09:32:06.570Z,12.90
2023-04-19T09:35:49.606Z,13.20
2023-04-19T09:39:36.227Z,13.40
2023-04-19T09:43:49.627Z,13.50
2023-04-19T09:47:30.092Z,13.60
2023-04-19T09:51:14.447Z,13.80
2023-04-19T09:55:01.078Z,13.90
2023-04-19T09:58:50.757Z,14.00
2023-04-19T10:02:36.883Z,14.20
2023-04-19T10:10:18.816Z,14.30
2023-04-19T10:14:03.484Z,14.20
2023-04-19T10:17:45.584Z,14.30
2023-04-19T10:21:28.739Z,14.50
2023-04-19T10:25:15.789Z,14.80
2023-04-19T10:28:57.950Z,14.90
2023-04-19T10:32:45.173Z,15.20
2023-04-19T10:36:28.835Z,15.40
2023-04-19T10:40:12.298Z,15.40
2023-04-19T10:43:57.674Z,15.40
2023-04-19T10:47:46.590Z,15.40
2023-04-19T10:51:32.597Z,15.60
2023-04-19T10:55:18.097Z,15.70
2023-04-19T10:59:08.444Z,15.80
2023-04-19T11:02:50.597Z,15.90
2023-04-19T11:06:36.025Z,16.10
2023-04-19T11:10:31.566Z,16.20
2023-04-19T11:14:14.395Z,16.20
2023-04-19T11:18:11.460Z,16.40
2023-04-19T11:21:58.805Z,16.40
2023-04-19T11:25:40.585Z,16.70
2023-04-19T11:29:22.351Z,16.80
2023-04-19T11:33:04.201Z,16.80
2023-04-19T11:36:51.838Z,16.80
2023-04-19T11:40:34.004Z,16.70
2023-04-19T11:44:19.604Z,16.60
2023-04-19T11:48:01.712Z,16.40
2023-04-19T11:51:43.531Z,16.50
2023-04-19T11:55:25.492Z,16.60
2023-04-19T11:59:09.567Z,16.70
2023-04-19T12:02:52.554Z,16.80
2023-04-19T12:06:34.419Z,16.90
2023-04-19T12:10:16.168Z,17.10
2023-04-19T12:14:19.746Z,17.20
2023-04-19T12:18:02.812Z,17.30
2023-04-19T12:21:45.869Z,17.40
2023-04-19T12:25:32.321Z,17.50
2023-04-19T12:29:14.192Z,17.50
2023-04-19T12:32:56.557Z,17.60
2023-04-19T12:36:38.318Z,17.50
2023-04-19T12:40:20.476Z,17.40
2023-04-19T12:44:02.382Z,17.40
2023-04-19T12:47:45.857Z,17.70
2023-04-19T12:51:27.974Z,17.90
2023-04-19T12:55:09.857Z,17.90
2023-04-19T12:58:51.691Z,17.80
2023-04-19T13:02:36.924Z,17.70
2023-04-19T13:06:18.845Z,17.50
2023-04-19T13:10:00.796Z,17.40
2023-04-19T13:13:42.521Z,17.30
2023-04-19T13:17:24.338Z,17.20
2023-04-19T13:21:08.023Z,17.10
2023-04-19T13:24:51.596Z,17.00
2023-04-19T13:28:35.771Z,17.00
2023-04-19T13:32:17.652Z,17.00
2023-04-19T13:35:59.428Z,16.90
2023-04-19T13:39:41.279Z,16.90
2023-04-19T13:43:23.182Z,16.80
2023-04-19T13:47:04.988Z,16.70
2023-04-19T13:50:47.520Z,16.80
2023-04-19T13:54:30.463Z,16.70
2023-04-19T13:58:12.303Z,16.80
2023-04-19T14:01:55.832Z,16.80
2023-04-19T14:05:38.136Z,16.80
2023-04-19T14:09:19.995Z,16.90
2023-04-19T14:13:01.960Z,16.90
2023-04-19T14:16:44.903Z,16.90
2023-04-19T14:20:26.724Z,17.10
2023-04-19T14:24:08.551Z,17.10
2023-04-19T14:27:50.289Z,17.10
2023-04-19T14:31:32.102Z,16.90
2023-04-19T14:35:13.833Z,17.00
2023-04-19T14:38:55.546Z,17.00
2023-04-19T14:42:37.331Z,17.00
2023-04-19T14:46:19.079Z,17.00
2023-04-19T14:50:00.863Z,16.90
2023-04-19T14:53:42.601Z,16.90
2023-04-19T14:57:26.140Z,17.00
2023-04-19T15:01:12.556Z,17.20
2023-04-19T15:04:54.801Z,17.20
2023-04-19T15:08:36.644Z,17.30
2023-04-19T15:12:18.465Z,17.30
2023-04-19T15:16:02.512Z,17.40
2023-04-19T15:19:46.920Z,17.60
2023-04-19T15:23:28.694Z,17.80
2023-04-19T15:27:10.602Z,17.80
2023-04-19T15:31:03.050Z,17.90
2023-04-19T15:34:44.878Z,17.90
2023-04-19T15:38:29.223Z,18.20
2023-04-19T15:42:10.969Z,18.30
2023-04-19T15:45:52.987Z,18.20
2023-04-19T15:49:34.727Z,18.20
2023-04-19T15:53:16.728Z,18.30
2023-04-19T15:56:58.466Z,18.50
2023-04-19T16:00:40.238Z,18.70
2023-04-19T16:04:22.200Z,19.20
2023-04-19T16:08:09.443Z,19.40
2023-04-19T16:11:51.636Z,19.40
2023-04-19T16:15:34.040Z,19.50
2023-04-19T16:19:16.650Z,19.70
2023-04-19T16:22:59.085Z,19.90
2023-04-19T16:26:41.121Z,20.00
2023-04-19T16:30:23.704Z,20.00
2023-04-19T16:34:05.727Z,20.20
2023-04-19T16:37:47.501Z,20.80
2023-04-19T16:41:30.042Z,21.40
2023-04-19T16:45:11.983Z,20.90
2023-04-19T16:48:53.728Z,21.00
2023-04-19T16:52:35.956Z,21.90
2023-04-19T16:56:18.703Z,21.60
2023-04-19T17:00:00.972Z,21.00
2023-04-19T17:03:42.918Z,21.20
2023-04-19T17:07:24.874Z,20.90
2023-04-19T17:11:06.905Z,20.40
2023-04-19T17:14:48.765Z,19.90
2023-04-19T17:18:30.630Z,19.70
2023-04-19T17:22:14.868Z,19.40
2023-04-19T17:25:56.601Z,19.10
2023-04-19T17:29:38.571Z,18.80
2023-04-19T17:33:20.682Z,18.50
2023-04-19T17:37:02.731Z,18.30
2023-04-19T17:40:45.183Z,18.00
2023-04-19T17:44:27.043Z,17.90
2023-04-19T17:48:08.965Z,18.30
2023-04-19T17:51:50.703Z,19.30
2023-04-19T17:55:33.276Z,20.00
2023-04-19T17:59:15.214Z,20.40
2023-04-19T18:02:57.310Z,20.00
2023-04-19T18:06:39.396Z,19.40
2023-04-19T18:10:21.265Z,18.80
2023-04-19T18:14:03.257Z,18.60
2023-04-19T18:17:45.123Z,19.10
2023-04-19T18:21:27.196Z,19.70
2023-04-19T18:25:09.453Z,20.10
2023-04-19T18:28:51.164Z,20.30
2023-04-19T18:32:33.237Z,20.40
2023-04-19T18:36:14.979Z,20.40
2023-04-19T18:39:56.776Z,20.10
2023-04-19T18:43:38.920Z,19.60
2023-04-19T18:47:20.676Z,18.80
2023-04-19T18:51:03.022Z,18.10
2023-04-19T18:54:44.709Z,17.60
2023-04-19T18:58:27.341Z,17.10
2023-04-19T19:02:09.394Z,16.80
2023-04-19T19:05:51.397Z,16.40
2023-04-19T19:09:33.281Z,16.10
2023-04-19T19:13:15.114Z,15.90
2023-04-19T19:16:57.515Z,15.70
2023-04-19T19:20:39.334Z,15.40
2023-04-19T19:24:21.181Z,15.30
2023-04-19T19:28:08.197Z,15.10
2023-04-19T19:31:51.908Z,15.00
2023-04-19T19:35:34.156Z,14.80
2023-04-19T19:39:16.095Z,14.70
2023-04-19T19:42:58.127Z,14.60
2023-04-19T19:46:40.231Z,14.50
2023-04-19T19:54:07.451Z,14.20
2023-04-19T19:58:21.010Z,14.10
2023-04-19T20:01:51.609Z,14.00
2023-04-19T20:05:33.790Z,13.80
2023-04-19T20:09:16.319Z,13.70
2023-04-19T20:12:58.536Z,13.60
2023-04-19T20:16:40.569Z,13.40
2023-04-19T20:20:22.560Z,13.40
2023-04-19T20:24:07.842Z,13.20
2023-04-19T20:27:49.635Z,13.20
2023-04-19T20:31:31.525Z,13.10
2023-04-19T20:35:13.311Z,13.00
2023-04-19T20:38:56.922Z,12.90
2023-04-19T20:42:38.798Z,12.80
2023-04-19T20:46:20.757Z,12.80
2023-04-19T20:50:02.705Z,12.60
2023-04-19T20:53:45.076Z,12.60
2023-04-19T20:57:26.795Z,12.40
2023-04-19T21:01:08.841Z,12.40
2023-04-19T21:04:50.728Z,12.30
2023-04-19T21:08:32.566Z,12.20
2023-04-19T21:12:14.337Z,12.10
2023-04-19T21:15:56.136Z,12.00
2023-04-19T21:19:38.001Z,11.90
2023-04-19T21:23:19.827Z,11.80
2023-04-19T21:27:01.740Z,11.80
2023-04-19T21:30:43.485Z,11.70
2023-04-19T21:34:25.239Z,11.60
2023-04-19T21:38:07.110Z,11.60
2023-04-19T21:41:48.907Z,11.60
2023-04-19T21:45:30.959Z,11.50
2023-04-19T21:49:12.765Z,11.40
2023-04-19T21:52:54.509Z,11.30
2023-04-19T21:56:37.657Z,11.20
2023-04-19T22:00:19.895Z,11.20
2023-04-19T22:04:02.045Z,11.10
2023-04-19T22:07:44.927Z,10.90
2023-04-19T22:11:28.990Z,10.90
2023-04-19T22:15:11.200Z,10.90
2023-04-19T22:18:53.044Z,10.90
2023-04-19T22:22:35.425Z,10.80
2023-04-19T22:26:17.297Z,10.80
2023-04-19T22:29:59.018Z,10.70
2023-04-19T22:33:40.725Z,10.70
2023-04-19T22:37:22.551Z,10.60
2023-04-19T22:41:04.594Z,10.50
2023-04-19T22:44:46.320Z,10.40
2023-04-19T22:48:30.072Z,10.30
2023-04-19T22:52:12.153Z,10.30
2023-04-19T22:55:53.989Z,10.30
2023-04-19T22:59:35.810Z,10.20
2023-04-19T23:03:17.570Z,10.10
2023-04-19T23:06:59.558Z,10.10
2023-04-19T23:10:42.542Z,9.90
2023-04-19T23:14:24.684Z,9.90
2023-04-19T23:18:07.059Z,9.80
2023-04-19T23:21:50.285Z,9.80
2023-04-19T23:25:32.304Z,9.70
2023-04-19T23:29:14.239Z,9.60
2023-04-19T23:32:56.098Z,9.50
2023-04-19T23:36:38.007Z,9.40
2023-04-19T23:40:20.655Z,9.40
2023-04-19T23:44:02.500Z,9.30
2023-04-19T23:47:44.313Z,9.30
2023-04-19T23:51:26.169Z,9.20
2023-04-19T23:55:08.315Z,9.10
2023-04-19T23:58:50.235Z,9.10
